Time;durP1;ratioP1;P1;durP2;ratioP2;P2;SDS_P1;SDS_P2;PMS_P1;PMS_P2;Temp;Humidity;BMP_temperature;BMP_pressure;BME280_temperature;BME280_humidity;BME280_pressure;Samples;Min_cycle;Max_cycle;Signal;HPM_P1;HPM_P2
2024/01/02 00:04:53;;;;;;;3.23;0.87;;;;;7.50;99348.00;;;;9864550;29;20243;-80
2024/01/02 00:09:54;;;;;;;4.57;0.80;;;;;7.50;99329.00;;;;9870647;29;20364;-77
2024/01/02 00:14:55;;;;;;;4.13;0.93;;;;;7.50;99289.00;;;;9863062;29;20234;-79
2024/01/02 00:19:56;;;;;;;2.80;0.63;;;;;7.50;99277.00;;;;9865555;29;20310;-82
2024/01/02 00:24:58;;;;;;;0.80;0.40;;;;;7.50;99259.00;;;;9860111;29;20265;-82
2024/01/02 00:29:59;;;;;;;2.30;0.97;;;;;7.60;99245.00;;;;9878795;29;20239;-81
2024/01/02 00:35:03;;;;;;;0.93;0.47;;;;;7.60;99212.00;;;;9856837;29;20231;-82
2024/01/02 00:40:05;;;;;;;0.70;0.60;;;;;7.60;99173.00;;;;9878595;29;20281;-84
2024/01/02 00:45:06;;;;;;;0.30;0.30;;;;;7.70;99183.00;;;;9858489;29;20234;-83
2024/01/02 00:50:08;;;;;;;0.60;0.50;;;;;7.70;99151.00;;;;9888657;29;20260;-83
2024/01/02 00:55:10;;;;;;;0.60;0.50;;;;;7.80;99177.00;;;;9870073;29;20842;-82
2024/01/02 01:00:11;;;;;;;1.43;0.50;;;;;7.80;99148.00;;;;9886398;29;20277;-82
2024/01/02 01:05:12;;;;;;;0.93;0.30;;;;;7.80;99139.00;;;;9886014;29;20330;-81
2024/01/02 01:10:14;;;;;;;0.50;0.20;;;;;7.80;99122.00;;;;9887896;29;20235;-83
2024/01/02 01:15:15;;;;;;;3.07;0.30;;;;;7.90;99105.00;;;;9853641;29;20231;-81
2024/01/02 01:20:16;;;;;;;2.00;0.30;;;;;7.90;99077.00;;;;9890508;29;20227;-81
2024/01/02 01:25:17;;;;;;;0.57;0.30;;;;;7.90;99071.00;;;;9853871;29;20236;-81
2024/01/02 01:30:19;;;;;;;1.80;0.43;;;;;8.00;99042.00;;;;9896311;29;20282;-85
2024/01/02 01:35:20;;;;;;;0.70;0.30;;;;;8.10;99016.00;;;;9841881;29;20242;-86
2024/01/02 01:40:21;;;;;;;0.57;0.27;;;;;8.10;99001.00;;;;9889041;29;20725;-84
2024/01/02 01:45:22;;;;;;;1.27;0.20;;;;;8.10;98970.00;;;;9859975;29;20243;-82
2024/01/02 01:50:24;;;;;;;0.57;0.23;;;;;8.20;98958.00;;;;9876766;29;20300;-83
2024/01/02 01:55:25;;;;;;;0.20;0.20;;;;;8.20;98968.00;;;;9874687;29;20314;-84
2024/01/02 02:00:27;;;;;;;0.60;0.57;;;;;8.30;98939.00;;;;9874035;29;20240;-83
2024/01/02 02:05:28;;;;;;;0.43;0.30;;;;;8.40;98921.00;;;;9887587;29;20258;-83
2024/01/02 02:10:30;;;;;;;1.13;0.23;;;;;8.40;98916.00;;;;9875971;29;20588;-85
2024/01/02 02:15:31;;;;;;;0.20;0.20;;;;;8.40;98887.00;;;;9878989;29;20224;-85
2024/01/02 02:20:32;;;;;;;0.50;0.20;;;;;8.50;98862.00;;;;9873374;29;20224;-83
2024/01/02 02:25:34;;;;;;;0.77;0.20;;;;;8.50;98871.00;;;;9873751;29;20235;-83
2024/01/02 02:30:35;;;;;;;0.97;0.23;;;;;8.50;98864.00;;;;9869969;29;20251;-81
2024/01/02 02:35:37;;;;;;;0.20;0.20;;;;;8.60;98853.00;;;;9881040;29;20233;-83
2024/01/02 02:40:39;;;;;;;0.63;0.20;;;;;8.70;98857.00;;;;9879981;29;20288;-83
2024/01/02 02:45:40;;;;;;;0.20;0.20;;;;;8.80;98841.00;;;;9875370;29;20240;-84
2024/01/02 02:50:41;;;;;;;0.10;0.10;;;;;8.90;98832.00;;;;9869847;29;20231;-83
2024/01/02 02:55:42;;;;;;;0.17;0.17;;;;;9.00;98817.00;;;;9868441;29;20236;-83
2024/01/02 03:00:43;;;;;;;0.10;0.10;;;;;9.10;98817.00;;;;9842377;29;20304;-86
2024/01/02 03:05:45;;;;;;;1.07;0.40;;;;;9.10;98815.00;;;;9885210;29;21147;-83
2024/01/02 03:10:49;;;;;;;0.10;0.10;;;;;9.20;98808.00;;;;9877175;29;20243;-83
2024/01/02 03:15:50;;;;;;;0.10;0.10;;;;;9.30;98783.00;;;;9857232;29;20847;-82
2024/01/02 03:20:51;;;;;;;0.50;0.20;;;;;9.40;98781.00;;;;9864405;29;20267;-84
2024/01/02 03:25:52;;;;;;;0.87;0.37;;;;;9.40;98772.00;;;;9895464;29;20238;-82
2024/01/02 03:30:53;;;;;;;1.30;0.67;;;;;9.50;98774.00;;;;9897012;29;20239;-83
2024/01/02 03:35:55;;;;;;;1.03;0.30;;;;;9.50;98763.00;;;;9899097;29;20235;-82
2024/01/02 03:40:56;;;;;;;0.57;0.40;;;;;9.60;98750.00;;;;9878398;29;20262;-83
2024/01/02 03:45:57;;;;;;;0.60;0.40;;;;;9.70;98762.00;;;;9850402;29;20756;-83
2024/01/02 03:51:00;;;;;;;0.97;0.50;;;;;9.80;98774.00;;;;9880737;29;20345;-77
2024/01/02 03:56:02;;;;;;;0.67;0.50;;;;;9.80;98768.00;;;;9875074;29;20793;-77
2024/01/02 04:01:03;;;;;;;0.73;0.60;;;;;9.90;98761.00;;;;9864924;29;20235;-78
2024/01/02 04:06:04;;;;;;;0.30;0.30;;;;;10.00;98763.00;;;;9873476;29;20914;-78
2024/01/02 04:11:06;;;;;;;0.60;0.30;;;;;10.10;98729.00;;;;9872481;29;20333;-78
2024/01/02 04:16:07;;;;;;;1.97;0.20;;;;;10.20;98738.00;;;;9862665;29;20859;-77
2024/01/02 04:21:08;;;;;;;0.10;0.10;;;;;10.20;98769.00;;;;9882256;29;20242;-76
2024/01/02 04:26:09;;;;;;;0.10;0.10;;;;;10.20;98763.00;;;;9885109;29;20254;-77
2024/01/02 04:31:11;;;;;;;0.30;0.20;;;;;10.30;98751.00;;;;9860353;29;20243;-78
2024/01/02 04:36:12;;;;;;;0.73;0.20;;;;;10.30;98761.00;;;;9853320;29;20234;-77
2024/01/02 04:41:13;;;;;;;0.10;0.10;;;;;10.30;98762.00;;;;9897952;29;20269;-79
2024/01/02 04:46:14;;;;;;;0.10;0.10;;;;;10.30;98765.00;;;;9865487;29;20300;-79
2024/01/02 04:51:15;;;;;;;0.50;0.20;;;;;10.30;98769.00;;;;9882583;29;20247;-78
2024/01/02 04:56:16;;;;;;;0.20;0.20;;;;;10.40;98767.00;;;;9895050;29;20243;-77
2024/01/02 05:01:18;;;;;;;0.10;0.10;;;;;10.40;98788.00;;;;9858737;29;20251;-85
2024/01/02 05:06:19;;;;;;;0.80;0.20;;;;;10.40;98785.00;;;;9906096;29;20227;-88
2024/01/02 05:11:20;;;;;;;0.10;0.10;;;;;10.50;98792.00;;;;9867347;29;20843;-86
2024/01/02 05:16:21;;;;;;;0.40;0.20;;;;;10.50;98813.00;;;;9876782;29;20288;-86
2024/01/02 05:21:23;;;;;;;0.20;0.20;;;;;10.50;98807.00;;;;9843211;29;20262;-84
2024/01/02 05:26:24;;;;;;;0.40;0.40;;;;;10.50;98809.00;;;;9851281;29;20226;-86
2024/01/02 05:31:25;;;;;;;0.20;0.20;;;;;10.50;98815.00;;;;9874973;29;20242;-86
2024/01/02 05:36:26;;;;;;;0.20;0.20;;;;;10.60;98821.00;;;;9868518;29;20235;-86
2024/01/02 05:41:27;;;;;;;2.23;0.47;;;;;10.60;98839.00;;;;9857447;29;20239;-85
2024/01/02 05:46:29;;;;;;;1.13;0.30;;;;;10.60;98838.00;;;;9886009;29;20235;-86
2024/01/02 05:51:30;;;;;;;0.70;0.50;;;;;10.70;98853.00;;;;9893547;29;20268;-84
2024/01/02 05:56:31;;;;;;;1.13;0.40;;;;;10.70;98852.00;;;;9857971;29;20960;-85
2024/01/02 06:01:32;;;;;;;0.30;0.30;;;;;10.70;98876.00;;;;9847959;29;20742;-86
2024/01/02 06:06:34;;;;;;;0.30;0.30;;;;;10.80;98873.00;;;;9840618;29;20327;-86
2024/01/02 06:11:35;;;;;;;0.40;0.30;;;;;10.80;98884.00;;;;9852852;29;20918;-85
2024/01/02 06:16:36;;;;;;;0.30;0.30;;;;;10.80;98887.00;;;;9868100;29;20310;-87
2024/01/02 06:21:37;;;;;;;0.60;0.30;;;;;10.70;98871.00;;;;9875028;29;20238;-85
2024/01/02 06:26:38;;;;;;;0.37;0.30;;;;;10.70;98869.00;;;;9868603;29;20232;-86
2024/01/02 06:31:40;;;;;;;0.93;0.30;;;;;10.70;98867.00;;;;9886560;29;20223;-87
2024/01/02 06:36:41;;;;;;;1.27;0.50;;;;;10.70;98865.00;;;;9888545;29;20330;-83
2024/01/02 06:41:44;;;;;;;1.20;0.30;;;;;10.70;98866.00;;;;9884577;29;20235;-86
2024/01/02 06:46:45;;;;;;;2.60;0.50;;;;;10.70;98873.00;;;;9864624;29;20238;-85
2024/01/02 06:51:46;;;;;;;0.30;0.30;;;;;10.80;98884.00;;;;9860806;29;20242;-87
2024/01/02 06:56:47;;;;;;;4.33;0.40;;;;;10.80;98901.00;;;;9875229;29;20227;-83
2024/01/02 07:01:49;;;;;;;0.70;0.30;;;;;10.80;98892.00;;;;9857101;29;20239;-85
2024/01/02 07:06:50;;;;;;;0.30;0.30;;;;;10.80;98892.00;;;;9890257;29;20243;-85
2024/01/02 07:11:51;;;;;;;0.50;0.50;;;;;10.80;98899.00;;;;9893332;29;20231;-86
2024/01/02 07:16:52;;;;;;;0.87;0.50;;;;;10.80;98898.00;;;;9906221;29;20259;-84
2024/01/02 07:21:53;;;;;;;0.50;0.40;;;;;10.80;98900.00;;;;9874392;29;20344;-82
2024/01/02 07:26:55;;;;;;;0.57;0.37;;;;;10.80;98900.00;;;;9866657;29;20239;-83
2024/01/02 07:31:56;;;;;;;0.57;0.50;;;;;10.90;98906.00;;;;9877793;29;20307;-83
2024/01/02 07:36:57;;;;;;;1.23;0.60;;;;;10.90;98921.00;;;;9858148;29;20790;-83
2024/01/02 07:41:58;;;;;;;1.00;0.70;;;;;10.90;98919.00;;;;9864343;29;20243;-83
2024/01/02 07:47:02;;;;;;;0.70;0.60;;;;;10.90;98904.00;;;;9876683;29;20938;-83
2024/01/02 07:52:04;;;;;;;0.73;0.37;;;;;10.90;98911.00;;;;9890044;29;20239;-83
2024/01/02 07:57:06;;;;;;;1.23;0.50;;;;;10.90;98906.00;;;;9860841;29;20263;-83
2024/01/02 08:02:10;;;;;;;0.30;0.30;;;;;11.00;98893.00;;;;9892355;29;20231;-83
2024/01/02 08:07:11;;;;;;;0.40;0.40;;;;;11.00;98883.00;;;;9864067;29;20247;-81
2024/01/02 08:12:13;;;;;;;0.37;0.37;;;;;11.00;98873.00;;;;9864179;29;20323;-83
2024/01/02 08:17:14;;;;;;;0.37;0.30;;;;;11.10;98868.00;;;;9864769;29;20863;-82
2024/01/02 08:22:16;;;;;;;0.23;0.23;;;;;11.10;98878.00;;;;9876477;29;20315;-82
2024/01/02 08:27:18;;;;;;;0.37;0.30;;;;;11.20;98882.00;;;;9878098;29;20246;-85
2024/01/02 08:32:20;;;;;;;2.93;0.30;;;;;11.30;98880.00;;;;9878642;29;20319;-84
2024/01/02 08:37:21;;;;;;;0.20;0.20;;;;;11.30;98893.00;;;;9888696;29;20223;-84
2024/01/02 08:42:22;;;;;;;1.80;0.70;;;;;11.30;98883.00;;;;9869726;29;20323;-82
2024/01/02 08:47:23;;;;;;;0.40;0.30;;;;;11.20;98891.00;;;;9860396;29;20235;-81
2024/01/02 08:52:25;;;;;;;0.83;0.77;;;;;11.20;98909.00;;;;9877660;29;20235;-83
2024/01/02 08:57:26;;;;;;;1.93;0.57;;;;;11.20;98900.00;;;;9853432;29;20254;-83
2024/01/02 09:02:27;;;;;;;1.67;0.80;;;;;11.20;98888.00;;;;9867896;29;20366;-83
2024/01/02 09:07:31;;;;;;;5.93;2.43;;;;;11.20;98875.00;;;;9882692;29;20242;-82
2024/01/02 09:12:32;;;;;;;3.63;2.67;;;;;11.20;98861.00;;;;9868358;29;20266;-83
2024/01/02 09:17:33;;;;;;;4.87;2.27;;;;;11.30;98841.00;;;;9871495;29;20698;-82
2024/01/02 09:22:34;;;;;;;1.40;1.07;;;;;11.40;98835.00;;;;9845051;29;20312;-81
2024/01/02 09:27:38;;;;;;;1.27;0.50;;;;;11.50;98839.00;;;;9894259;29;20231;-82
2024/01/02 09:32:40;;;;;;;0.40;0.40;;;;;11.50;98832.00;;;;9881954;29;20250;-81
2024/01/02 09:37:42;;;;;;;0.60;0.50;;;;;11.50;98831.00;;;;9854140;29;20231;-81
2024/01/02 09:43:05;;;;;;;0.40;0.40;;;;;11.50;98841.00;;;;9870338;29;20250;-82
2024/01/02 09:48:21;;;;;;;0.47;0.40;;;;;11.50;98835.00;;;;9873823;29;20661;-82
2024/01/02 09:53:32;;;;;;;1.17;0.33;;;;;11.40;98842.00;;;;9855829;29;20223;-82
2024/01/02 09:58:53;;;;;;;0.67;0.30;;;;;11.20;98826.00;;;;9880804;29;20236;-82
2024/01/02 10:04:04;;;;;;;0.40;0.40;;;;;11.10;98820.00;;;;9881946;29;20298;-82
2024/01/02 10:09:32;;;;;;;1.33;0.23;;;;;11.00;98826.00;;;;9873945;29;20321;-82
2024/01/02 10:14:55;;;;;;;0.40;0.40;;;;;10.90;98803.00;;;;9876371;29;20967;-83
2024/01/02 10:20:08;;;;;;;0.53;0.40;;;;;10.80;98779.00;;;;9869085;29;20240;-82
2024/01/02 10:25:10;;;;;;;0.30;0.30;;;;;10.80;98775.00;;;;9875917;29;20222;-81
2024/01/02 10:30:15;;;;;;;1.03;0.40;;;;;10.70;98756.00;;;;9849644;29;20325;-83
2024/01/02 10:35:44;;;;;;;0.47;0.30;;;;;10.60;98739.00;;;;9898314;29;21012;-82
2024/01/02 10:41:06;;;;;;;0.90;0.40;;;;;10.60;98719.00;;;;9868116;29;20234;-80
2024/01/02 10:46:49;;;;;;;2.53;0.60;;;;;10.60;98716.00;;;;9882257;29;20239;-82
2024/01/02 10:52:01;;;;;;;0.47;0.30;;;;;10.60;98715.00;;;;9827698;29;20258;-80
2024/01/02 10:57:06;;;;;;;0.40;0.40;;;;;10.60;98694.00;;;;9878461;29;20318;-80
2024/01/02 11:02:39;;;;;;;0.53;0.40;;;;;10.60;98672.00;;;;9895564;29;20236;-84
2024/01/02 11:07:43;;;;;;;0.30;0.30;;;;;10.60;98662.00;;;;9881350;29;20305;-83
2024/01/02 11:13:06;;;;;;;0.30;0.30;;;;;10.50;98656.00;;;;9886962;29;21712;-84
2024/01/02 11:18:18;;;;;;;0.60;0.47;;;;;10.50;98640.00;;;;9856863;29;20255;-82
2024/01/02 11:23:26;;;;;;;1.70;0.70;;;;;10.50;98635.00;;;;9854585;29;20892;-84
2024/01/02 11:28:28;;;;;;;0.80;0.80;;;;;10.50;98632.00;;;;9894876;29;20762;-82
2024/01/02 11:33:39;;;;;;;0.77;0.60;;;;;10.60;98623.00;;;;9874412;29;20265;-82
2024/01/02 11:39:18;;;;;;;0.57;0.43;;;;;10.60;98609.00;;;;9856192;29;20710;-83
2024/01/02 11:44:48;;;;;;;1.90;0.73;;;;;10.60;98590.00;;;;9885932;29;20289;-82
2024/01/02 11:49:57;;;;;;;0.50;0.43;;;;;10.60;98579.00;;;;9871552;29;20253;-84
2024/01/02 11:55:22;;;;;;;0.43;0.40;;;;;10.60;98569.00;;;;9879895;29;20233;-84
2024/01/02 12:00:30;;;;;;;1.83;0.40;;;;;10.60;98559.00;;;;9880618;29;20243;-83
2024/01/02 12:05:38;;;;;;;2.50;0.70;;;;;10.70;98546.00;;;;9860316;29;20314;-82
2024/01/02 12:10:48;;;;;;;1.77;0.60;;;;;10.70;98530.00;;;;9858529;29;20247;-79
2024/01/02 12:15:53;;;;;;;1.10;0.80;;;;;10.80;98520.00;;;;9863026;29;20255;-77
2024/01/02 12:21:03;;;;;;;1.37;0.67;;;;;10.90;98521.00;;;;9878381;29;20231;-77
2024/01/02 12:26:06;;;;;;;0.67;0.63;;;;;11.00;98509.00;;;;9867975;29;20978;-77
2024/01/02 12:31:16;;;;;;;2.43;0.90;;;;;11.20;98496.00;;;;9890223;29;20242;-78
2024/01/02 12:36:27;;;;;;;5.43;1.03;;;;;11.30;98480.00;;;;9877812;29;20778;-81
2024/01/02 12:41:41;;;;;;;1.97;1.13;;;;;11.30;98471.00;;;;9858919;29;20718;-78
2024/01/02 12:46:49;;;;;;;1.43;0.80;;;;;11.40;98459.00;;;;9902783;29;20224;-79
2024/01/02 12:51:55;;;;;;;3.47;0.97;;;;;11.50;98438.00;;;;9889436;29;20864;-78
2024/01/02 12:57:02;;;;;;;1.93;1.07;;;;;11.70;98428.00;;;;9885312;29;20238;-80
2024/01/02 13:02:07;;;;;;;1.97;1.00;;;;;11.80;98418.00;;;;9865636;29;20315;-80
2024/01/02 13:07:11;;;;;;;2.80;1.13;;;;;11.80;98394.00;;;;9859920;29;20930;-83
2024/01/02 13:12:17;;;;;;;1.47;1.03;;;;;11.80;98386.00;;;;9856143;29;20319;-81
2024/01/02 13:17:19;;;;;;;0.97;0.70;;;;;11.80;98367.00;;;;9874873;29;20228;-82
2024/01/02 13:22:24;;;;;;;0.80;0.67;;;;;11.80;98376.00;;;;9867620;29;20236;-75
2024/01/02 13:27:27;;;;;;;0.57;0.57;;;;;11.60;98353.00;;;;9872233;29;20326;-77
2024/01/02 13:32:28;;;;;;;2.30;0.60;;;;;11.60;98342.00;;;;9853858;29;20284;-76
2024/01/02 13:37:30;;;;;;;0.80;0.60;;;;;11.60;98315.00;;;;9860475;29;20231;-75
2024/01/02 13:42:33;;;;;;;1.37;0.90;;;;;11.50;98315.00;;;;9841723;29;20242;-76
2024/01/02 13:47:34;;;;;;;0.60;0.60;;;;;11.60;98311.00;;;;9882746;29;20278;-75
2024/01/02 13:52:38;;;;;;;0.67;0.60;;;;;11.50;98291.00;;;;9861712;29;20227;-75
2024/01/02 13:57:39;;;;;;;0.40;0.40;;;;;11.50;98294.00;;;;9842237;29;20232;-79
2024/01/02 14:02:46;;;;;;;1.33;0.40;;;;;11.40;98282.00;;;;9855850;29;20654;-78
2024/01/02 14:07:48;;;;;;;1.10;0.47;;;;;11.30;98256.00;;;;9856349;29;20232;-75
2024/01/02 14:12:50;;;;;;;1.87;0.50;;;;;11.20;98231.00;;;;9868539;29;20841;-75
2024/01/02 14:17:56;;;;;;;1.10;0.53;;;;;11.20;98213.00;;;;9853324;29;20231;-78
2024/01/02 14:23:03;;;;;;;1.53;0.30;;;;;11.10;98203.00;;;;9866538;29;20242;-78
2024/01/02 14:28:12;;;;;;;0.20;0.20;;;;;11.00;98172.00;;;;9872689;29;21210;-78
2024/01/02 14:33:28;;;;;;;0.33;0.27;;;;;11.00;98176.00;;;;9890192;29;20235;-78
2024/01/02 14:39:03;;;;;;;0.50;0.47;;;;;11.00;98169.00;;;;9871166;29;20243;-79
2024/01/02 14:44:26;;;;;;;0.40;0.40;;;;;11.00;98156.00;;;;9856216;29;20296;-83
2024/01/02 14:49:30;;;;;;;0.90;0.40;;;;;11.00;98146.00;;;;9865908;29;21016;-83
2024/01/02 14:55:01;;;;;;;1.17;0.40;;;;;11.00;98134.00;;;;9851627;29;20855;-84
2024/01/02 15:00:08;;;;;;;0.57;0.30;;;;;11.00;98139.00;;;;9867064;29;21086;-83
2024/01/02 15:05:16;;;;;;;0.50;0.47;;;;;11.00;98117.00;;;;9878225;29;20263;-82
2024/01/02 15:10:20;;;;;;;0.30;0.30;;;;;11.00;98122.00;;;;9853551;29;20304;-83
2024/01/02 15:15:37;;;;;;;0.40;0.40;;;;;11.00;98081.00;;;;9895629;29;20259;-82
2024/01/02 15:21:03;;;;;;;1.23;0.50;;;;;11.00;98089.00;;;;9883589;29;20259;-82
2024/01/02 15:26:26;;;;;;;0.40;0.40;;;;;11.00;98111.00;;;;9865980;29;20267;-82
2024/01/02 15:31:27;;;;;;;1.00;0.50;;;;;11.00;98093.00;;;;9859875;29;20310;-82
2024/01/02 15:36:39;;;;;;;0.40;0.40;;;;;11.00;98079.00;;;;9871056;29;20303;-81
2024/01/02 15:41:56;;;;;;;0.63;0.40;;;;;11.00;98083.00;;;;9877172;29;20230;-82
2024/01/02 15:47:12;;;;;;;2.10;0.50;;;;;11.00;98059.00;;;;9855096;29;20258;-81
2024/01/02 15:52:14;;;;;;;0.43;0.30;;;;;11.00;98062.00;;;;9887388;29;20314;-81
2024/01/02 15:57:21;;;;;;;0.83;0.57;;;;;11.00;98049.00;;;;9899973;29;20243;-81
2024/01/02 16:03:01;;;;;;;0.50;0.50;;;;;11.00;98068.00;;;;9891329;29;23422;-80
2024/01/02 16:08:20;;;;;;;0.50;0.50;;;;;11.00;98037.00;;;;9860281;29;20230;-79
2024/01/02 16:13:49;;;;;;;1.60;0.60;;;;;11.00;98026.00;;;;9895406;29;20230;-80
2024/01/02 16:18:59;;;;;;;0.40;0.40;;;;;11.00;98053.00;;;;9852984;29;20262;-80
2024/01/02 16:24:29;;;;;;;0.40;0.40;;;;;11.10;98060.00;;;;9881784;29;20703;-80
2024/01/02 16:29:58;;;;;;;0.57;0.57;;;;;11.10;98023.00;;;;9877857;29;20300;-80
2024/01/02 16:35:14;;;;;;;3.00;0.50;;;;;11.10;98046.00;;;;9893946;29;20245;-80
2024/01/02 16:40:47;;;;;;;0.53;0.50;;;;;11.10;98038.00;;;;9914397;29;20322;-79
2024/01/02 16:45:49;;;;;;;2.73;0.50;;;;;11.10;98042.00;;;;9850770;29;20635;-80
2024/01/02 16:50:54;;;;;;;0.80;0.50;;;;;11.20;98040.00;;;;9859890;29;20239;-80
2024/01/02 16:55:56;;;;;;;1.93;0.93;;;;;11.20;98041.00;;;;9882438;29;20246;-80
2024/01/02 17:00:58;;;;;;;1.53;0.67;;;;;11.20;98029.00;;;;9897903;29;20242;-79
2024/01/02 17:06:09;;;;;;;0.70;0.70;;;;;11.20;98015.00;;;;9858349;29;20259;-80
2024/01/02 17:11:14;;;;;;;1.90;0.50;;;;;11.20;98041.00;;;;9900180;29;20236;-80
2024/01/02 17:16:18;;;;;;;3.30;0.90;;;;;11.10;98050.00;;;;9893467;29;20276;-79
2024/01/02 17:21:22;;;;;;;2.33;0.70;;;;;11.10;98058.00;;;;9876861;29;20258;-79
2024/01/02 17:26:24;;;;;;;2.07;0.77;;;;;11.20;98045.00;;;;9867232;29;20227;-80
2024/01/02 17:31:26;;;;;;;0.83;0.67;;;;;11.30;98056.00;;;;9877273;29;20231;-79
2024/01/02 17:36:29;;;;;;;0.97;0.50;;;;;11.20;98060.00;;;;9838850;29;20235;-81
2024/01/02 17:41:31;;;;;;;1.97;0.87;;;;;11.10;98084.00;;;;9858694;29;21162;-80
2024/01/02 17:46:35;;;;;;;5.07;1.03;;;;;10.90;98080.00;;;;9881251;29;20257;-81
2024/01/02 17:51:37;;;;;;;11.23;2.00;;;;;10.80;98090.00;;;;9886181;29;20274;-79
2024/01/02 17:56:39;;;;;;;9.13;2.10;;;;;10.70;98078.00;;;;9851904;29;20236;-79
2024/01/02 18:01:53;;;;;;;10.70;2.47;;;;;10.70;98079.00;;;;9873085;29;20239;-79
2024/01/02 18:07:27;;;;;;;12.23;2.60;;;;;10.90;98111.00;;;;9869518;29;20227;-79
2024/01/02 18:12:46;;;;;;;9.63;2.23;;;;;10.90;98109.00;;;;9875646;29;20305;-82
2024/01/02 18:18:08;;;;;;;13.13;2.83;;;;;10.90;98116.00;;;;9882509;29;20231;-82
2024/01/02 18:23:22;;;;;;;16.47;3.20;;;;;10.90;98113.00;;;;9861946;29;20264;-83
2024/01/02 18:28:39;;;;;;;11.47;2.43;;;;;10.90;98127.00;;;;9893663;29;20251;-82
2024/01/02 18:33:52;;;;;;;17.00;2.80;;;;;10.80;98124.00;;;;9859658;29;20234;-82
2024/01/02 18:39:15;;;;;;;14.87;2.90;;;;;10.80;98119.00;;;;9878826;29;20235;-81
2024/01/02 18:44:23;;;;;;;12.00;2.77;;;;;10.80;98119.00;;;;9860582;29;20257;-81
2024/01/02 18:49:27;;;;;;;13.17;3.20;;;;;10.80;98126.00;;;;9860184;29;20242;-81
2024/01/02 18:54:37;;;;;;;13.90;2.93;;;;;10.80;98133.00;;;;9870424;29;20231;-81
2024/01/02 18:59:40;;;;;;;14.03;2.83;;;;;10.80;98121.00;;;;9888423;29;20331;-82
2024/01/02 19:04:48;;;;;;;15.97;2.60;;;;;10.80;98148.00;;;;9856926;29;20231;-82
2024/01/02 19:09:51;;;;;;;13.37;3.13;;;;;10.90;98138.00;;;;9895630;29;20262;-81
2024/01/02 19:14:54;;;;;;;10.23;2.37;;;;;10.90;98152.00;;;;9874222;29;20299;-81
2024/01/02 19:19:59;;;;;;;12.53;2.20;;;;;10.90;98148.00;;;;9862887;29;20247;-79
2024/01/02 19:25:02;;;;;;;9.03;1.83;;;;;10.90;98191.00;;;;9852188;29;20232;-78
2024/01/02 19:30:07;;;;;;;10.83;2.80;;;;;10.90;98198.00;;;;9906625;29;20301;-80
2024/01/02 19:35:09;;;;;;;14.53;2.43;;;;;10.90;98224.00;;;;9873437;29;20258;-78
2024/01/02 19:40:10;;;;;;;13.90;2.60;;;;;10.70;98215.00;;;;9857036;29;20235;-80
2024/01/02 19:45:15;;;;;;;9.73;2.43;;;;;10.40;98222.00;;;;9883554;29;20280;-78
2024/01/02 19:50:16;;;;;;;9.90;1.63;;;;;10.40;98200.00;;;;9865826;29;20251;-78
2024/01/02 19:55:17;;;;;;;15.97;2.50;;;;;10.20;98240.00;;;;9861292;29;20235;-79
2024/01/02 20:00:20;;;;;;;12.60;2.57;;;;;10.10;98231.00;;;;9849117;29;20254;-78
2024/01/02 20:05:26;;;;;;;11.73;2.30;;;;;10.20;98231.00;;;;9886002;29;20231;-77
2024/01/02 20:10:27;;;;;;;13.00;3.33;;;;;10.20;98219.00;;;;9884758;29;20235;-78
2024/01/02 20:15:35;;;;;;;10.90;2.67;;;;;10.30;98244.00;;;;9870230;29;20614;-78
2024/01/02 20:20:39;;;;;;;12.53;3.17;;;;;10.40;98232.00;;;;9849143;29;20235;-78
2024/01/02 20:25:43;;;;;;;15.70;3.57;;;;;10.50;98254.00;;;;9870577;29;20864;-78
2024/01/02 20:30:45;;;;;;;9.17;2.60;;;;;10.40;98246.00;;;;9871547;29;20700;-81
2024/01/02 20:35:46;;;;;;;13.97;2.90;;;;;10.30;98255.00;;;;9859099;29;20233;-78
2024/01/02 20:40:48;;;;;;;12.10;2.57;;;;;10.30;98255.00;;;;9862278;29;20657;-79
2024/01/02 20:45:52;;;;;;;12.53;3.33;;;;;10.40;98257.00;;;;9847177;29;20285;-77
2024/01/02 20:50:58;;;;;;;15.90;4.13;;;;;10.40;98269.00;;;;9884761;29;20226;-77
2024/01/02 20:56:01;;;;;;;16.30;4.23;;;;;10.40;98271.00;;;;9867093;29;20229;-80
2024/01/02 21:01:11;;;;;;;16.67;3.10;;;;;10.40;98281.00;;;;9888832;29;20230;-78
2024/01/02 21:06:23;;;;;;;11.33;3.07;;;;;10.40;98303.00;;;;9874863;29;20240;-77
2024/01/02 21:11:25;;;;;;;21.83;3.30;;;;;10.40;98302.00;;;;9859314;29;20886;-77
2024/01/02 21:16:26;;;;;;;13.90;2.97;;;;;10.50;98294.00;;;;9865489;29;20239;-77
2024/01/02 21:21:35;;;;;;;18.87;3.33;;;;;10.40;98320.00;;;;9867821;29;20285;-76
2024/01/02 21:26:36;;;;;;;16.00;3.17;;;;;10.30;98315.00;;;;9846173;29;20235;-76
2024/01/02 21:31:37;;;;;;;24.40;4.23;;;;;10.40;98335.00;;;;9880137;29;20247;-76
2024/01/02 21:36:38;;;;;;;15.60;3.13;;;;;10.40;98348.00;;;;9886472;29;20235;-77
2024/01/02 21:41:40;;;;;;;17.50;3.63;;;;;10.40;98349.00;;;;9865166;29;20314;-82
2024/01/02 21:46:41;;;;;;;18.73;3.10;;;;;10.50;98355.00;;;;9890484;29;20262;-81
2024/01/02 21:51:44;;;;;;;26.60;3.90;;;;;10.60;98366.00;;;;9886172;29;20262;-81
2024/01/02 21:56:46;;;;;;;21.37;4.13;;;;;10.60;98377.00;;;;9873252;29;20232;-79
2024/01/02 22:01:47;;;;;;;21.30;3.97;;;;;10.60;98391.00;;;;9877922;29;20226;-80
2024/01/02 22:06:49;;;;;;;18.43;3.93;;;;;10.60;98389.00;;;;9882985;29;20651;-82
2024/01/02 22:11:54;;;;;;;21.27;4.17;;;;;10.60;98397.00;;;;9875385;29;20240;-82
2024/01/02 22:16:56;;;;;;;15.97;3.13;;;;;10.50;98398.00;;;;9852113;29;20227;-82
2024/01/02 22:22:03;;;;;;;14.43;4.03;;;;;10.50;98415.00;;;;9858570;29;20714;-82
2024/01/02 22:27:10;;;;;;;19.07;3.77;;;;;10.50;98420.00;;;;9856634;29;21107;-82
2024/01/02 22:32:12;;;;;;;15.13;3.30;;;;;10.40;98430.00;;;;9875902;29;20266;-81
2024/01/02 22:37:23;;;;;;;20.63;3.83;;;;;10.40;98436.00;;;;9850511;29;20235;-79
2024/01/02 22:42:26;;;;;;;26.50;3.63;;;;;10.50;98450.00;;;;9837111;29;20240;-80
2024/01/02 22:47:27;;;;;;;20.10;3.77;;;;;10.40;98449.00;;;;9846894;29;20250;-80
2024/01/02 22:52:28;;;;;;;15.27;2.77;;;;;10.50;98456.00;;;;9847992;29;20704;-79
2024/01/02 22:57:29;;;;;;;22.33;3.57;;;;;10.50;98465.00;;;;9885444;29;20908;-78
2024/01/02 23:02:30;;;;;;;19.53;3.37;;;;;10.10;98473.00;;;;9895748;29;20311;-80
2024/01/02 23:07:35;;;;;;;23.97;4.63;;;;;9.80;98464.00;;;;9866266;29;20219;-78
2024/01/02 23:12:37;;;;;;;17.10;2.80;;;;;9.80;98471.00;;;;9858564;29;20227;-78
2024/01/02 23:17:42;;;;;;;21.70;3.23;;;;;9.90;98457.00;;;;9849884;29;20692;-79
2024/01/02 23:22:44;;;;;;;22.93;4.00;;;;;10.00;98462.00;;;;9868113;29;20224;-79
2024/01/02 23:27:48;;;;;;;16.30;3.90;;;;;10.10;98483.00;;;;9889350;29;20245;-79
2024/01/02 23:32:49;;;;;;;23.70;3.93;;;;;10.20;98491.00;;;;9856523;29;20269;-80
2024/01/02 23:37:51;;;;;;;16.63;3.27;;;;;10.20;98510.00;;;;9859052;29;20227;-79
2024/01/02 23:42:52;;;;;;;25.80;4.20;;;;;10.20;98527.00;;;;9908277;29;21767;-79
2024/01/02 23:47:54;;;;;;;17.63;3.53;;;;;10.30;98539.00;;;;9892931;29;20317;-79
2024/01/02 23:52:57;;;;;;;20.27;3.83;;;;;10.20;98536.00;;;;9866248;29;20223;-79
2024/01/02 23:57:58;;;;;;;19.60;3.50;;;;;10.20;98535.00;;;;9875652;29;20275;-78
